ADDS METAR Data

Data at: 0743 UTC 24 Oct 2017

METAR for:KLEW (Auburn-Lewiston Muni, ME, US)
Text:KLEW 240711Z AUTO 16003KT 1/2SM FG OVC003 14/13 A3012 RMK AO2
Temperature: 14.0°C ( 57°F)
Dewpoint: 13.0°C ( 55°F) [RH = 94%]
Pressure (altimeter):30.12 inches Hg (1020.1 mb)
Winds:from the SSE (160 degrees) at 3 MPH (3 knots; 1.5 m/s)
Visibility: 0.50 sm ( 0.80 km)
Ceiling:300 feet AGL
Clouds: overcast cloud deck at 300 feet AGL
Weather:FG (fog)
QC Flag:automated observation with no human augmentation